B2156 ZUGH-ZUGH

Flight info

Callsign B2156
Flight time 0h 7m
Altitude 3000
Route LOCAL TFC PETTERN
Aircraft B736/M-DOV/C

Departure

Time 2026-05-07 16:08
Airport Guanghan Airport (ZUGH)

Arrival

Time 2026-05-07 16:16
Airport Guanghan Airport (ZUGH)
Time Latitude Longitude Altitude Speed Heading
2026-05-07 14:41 30.94694 104.32713 1617 ft 0 kts 36°
2026-05-07 16:02 30.94703 104.32721 1616 ft 3 kts 36°
2026-05-07 16:02 30.94728 104.32742 1616 ft 5 kts 37°
2026-05-07 16:02 30.94748 104.32776 1617 ft 4 kts 93°
2026-05-07 16:03 30.94729 104.32817 1617 ft 6 kts 122°
2026-05-07 16:03 30.94697 104.32867 1617 ft 8 kts 126°
2026-05-07 16:03 30.94658 104.32928 1617 ft 10 kts 124°
2026-05-07 16:03 30.94612 104.33001 1617 ft 12 kts 125°
2026-05-07 16:04 30.94559 104.33087 1617 ft 13 kts 124°
2026-05-07 16:04 30.94496 104.33184 1617 ft 15 kts 124°
2026-05-07 16:04 30.94427 104.33295 1617 ft 17 kts 123°
2026-05-07 16:04 30.94349 104.33418 1617 ft 19 kts 124°
2026-05-07 16:05 30.94265 104.33552 1617 ft 20 kts 125°
2026-05-07 16:05 30.94225 104.33705 1617 ft 21 kts 79°
2026-05-07 16:05 30.94234 104.33757 1617 ft 0 kts 77°
2026-05-07 16:06 30.94235 104.33765 1617 ft 2 kts 78°
2026-05-07 16:06 30.94241 104.33798 1617 ft 5 kts 77°
2026-05-07 16:07 30.94266 104.33834 1617 ft 6 kts 19°
2026-05-07 16:07 30.94308 104.33817 1617 ft 7 kts 309°
2026-05-07 16:07 30.94344 104.33759 1617 ft 11 kts 307°
2026-05-07 16:07 30.94544 104.33442 1617 ft 105 kts 311°
2026-05-07 16:08 30.95082 104.32594 1775 ft 148 kts 311°
2026-05-07 16:08 30.95801 104.31548 2007 ft 187 kts 311°
2026-05-07 16:08 30.96637 104.30234 2422 ft 212 kts 302°
2026-05-07 16:08 30.97146 104.28664 2505 ft 203 kts 283°
2026-05-07 16:09 30.97033 104.27123 2545 ft 188 kts 249°
2026-05-07 16:09 30.96242 104.26015 2569 ft 170 kts 215°
2026-05-07 16:09 30.95228 104.25336 2648 ft 166 kts 191°
2026-05-07 16:09 30.94137 104.25516 2563 ft 153 kts 150°
2026-05-07 16:10 30.93287 104.26188 2579 ft 144 kts 136°
2026-05-07 16:10 30.92511 104.26962 2465 ft 148 kts 133°
2026-05-07 16:10 30.91836 104.27864 2399 ft 146 kts 124°
2026-05-07 16:10 30.91218 104.28797 2379 ft 142 kts 123°
2026-05-07 16:11 30.90615 104.29710 2331 ft 141 kts 122°
2026-05-07 16:11 30.90054 104.30617 2315 ft 138 kts 121°
2026-05-07 16:11 30.89518 104.31512 2485 ft 129 kts 115°
2026-05-07 16:11 30.89166 104.32491 2542 ft 137 kts 96°
2026-05-07 16:12 30.89331 104.33616 2587 ft 147 kts 63°
2026-05-07 16:12 30.90011 104.34619 2500 ft 167 kts 45°
2026-05-07 16:12 30.90905 104.35547 2397 ft 171 kts 39°
2026-05-07 16:12 30.91833 104.36258 2622 ft 143 kts 34°
2026-05-07 16:13 30.92620 104.36836 2628 ft 126 kts 38°
2026-05-07 16:13 30.93242 104.37466 2604 ft 112 kts 53°
2026-05-07 16:13 30.93438 104.38387 2591 ft 125 kts 95°
2026-05-07 16:13 30.93048 104.39286 2574 ft 124 kts 135°
2026-05-07 16:14 30.92198 104.39497 2434 ft 139 kts 192°
2026-05-07 16:14 30.91489 104.38726 2341 ft 142 kts 253°
2026-05-07 16:14 30.91637 104.37626 2261 ft 147 kts 309°
2026-05-07 16:14 30.92342 104.36755 2222 ft 153 kts 315°
2026-05-07 16:15 30.93025 104.35807 2014 ft 147 kts 311°
2026-05-07 16:15 30.93638 104.34845 1850 ft 140 kts 310°
2026-05-07 16:15 30.94218 104.33942 1649 ft 143 kts 309°
2026-05-07 16:15 30.94796 104.33045 1617 ft 125 kts 311°
2026-05-07 16:16 30.95197 104.32434 1617 ft 84 kts 302°
2026-05-07 16:16 30.95399 104.32049 1616 ft 0 kts 282°
2026-05-07 16:16 30.95389 104.32066 1616 ft 3 kts 272°
2026-05-07 16:16 30.95368 104.32038 1616 ft 6 kts 208°
2026-05-07 16:17 30.95304 104.32035 1616 ft 13 kts 180°
2026-05-07 16:17 30.95191 104.32083 1616 ft 21 kts 123°
2026-05-07 16:17 30.95088 104.32236 1616 ft 26 kts 127°
2026-05-07 16:17 30.94974 104.32423 1616 ft 27 kts 131°
2026-05-07 16:18 30.94909 104.32564 1616 ft 15 kts 110°
2026-05-07 16:18 30.94828 104.32660 1616 ft 16 kts 123°
2026-05-07 16:18 30.94757 104.32777 1617 ft 18 kts 126°
2026-05-07 16:18 30.94678 104.32818 1616 ft 11 kts 198°
2026-05-07 16:19 30.94640 104.32742 1617 ft 7 kts 299°
2026-05-07 16:19 30.94672 104.32702 1616 ft 4 kts 339°
2026-05-07 16:19 30.94694 104.32713 1616 ft 0 kts 36°